Camp Dodge, Iowa
Current Conditions -  °F | °C
As of 12:15 PM on Thursday 29 Jan 2015 (Local Time) from KIKV Reporting Station
Overcast Overcast  
Wind Chill: -6°   Ceiling: 1800
Heat Index:   Visibility: 10mi
Dew Point: -4°   Wind: 25mph
Humidity: 70%   Direction: 330°NNW
Pressure: 30.29"   Gusts: 33mph
Location:  41.689°N, 93.7182°W
Report Text: KIKV 291815Z AUTO 33022G29KT 10SM OVC018 01/M04 A3029 RMK AO2
Loading
Personal Weather Stations






























Interactive Weather Map New forecast layout! Learn more

10-Day Weather Forecast

Advertisements
Track Severe Weather on mobile